sensor_id;sensor_type;location;lat;lon;timestamp;pressure;altitude;pressure_sealevel;temperature;humidity
21566;BME280;10943;48.738;9.320;2022-07-12T00:02:14;99461.41;;;18.75;62.93
21566;BME280;10943;48.738;9.320;2022-07-12T00:04:42;99470.94;;;18.63;63.42
21566;BME280;10943;48.738;9.320;2022-07-12T00:07:09;99465.91;;;18.66;62.46
21566;BME280;10943;48.738;9.320;2022-07-12T00:09:36;99463.06;;;18.40;63.26
21566;BME280;10943;48.738;9.320;2022-07-12T00:12:04;99474.03;;;18.62;63.62
21566;BME280;10943;48.738;9.320;2022-07-12T00:14:32;99470.63;;;18.50;64.12
21566;BME280;10943;48.738;9.320;2022-07-12T00:16:59;99471.13;;;18.05;65.28
21566;BME280;10943;48.738;9.320;2022-07-12T00:19:27;99473.63;;;18.07;64.68
21566;BME280;10943;48.738;9.320;2022-07-12T00:21:54;99478.16;;;18.13;65.12
21566;BME280;10943;48.738;9.320;2022-07-12T00:24:21;99481.22;;;18.06;64.49
21566;BME280;10943;48.738;9.320;2022-07-12T00:26:48;99477.28;;;17.97;65.61
21566;BME280;10943;48.738;9.320;2022-07-12T00:29:15;99483.72;;;17.97;65.32
21566;BME280;10943;48.738;9.320;2022-07-12T00:31:43;99479.28;;;18.22;65.53
21566;BME280;10943;48.738;9.320;2022-07-12T00:34:10;99488.34;;;18.40;64.80
21566;BME280;10943;48.738;9.320;2022-07-12T00:36:37;99474.84;;;18.37;64.61
21566;BME280;10943;48.738;9.320;2022-07-12T00:39:04;99474.84;;;18.47;64.39
21566;BME280;10943;48.738;9.320;2022-07-12T00:41:32;99466.94;;;18.23;64.63
21566;BME280;10943;48.738;9.320;2022-07-12T00:43:59;99473.88;;;17.95;65.69
21566;BME280;10943;48.738;9.320;2022-07-12T00:46:26;99479.53;;;18.10;64.77
21566;BME280;10943;48.738;9.320;2022-07-12T00:48:54;99477.56;;;18.11;63.85
21566;BME280;10943;48.738;9.320;2022-07-12T00:51:23;99483.13;;;17.95;65.10
21566;BME280;10943;48.738;9.320;2022-07-12T00:53:52;99470.56;;;18.19;65.25
21566;BME280;10943;48.738;9.320;2022-07-12T00:56:21;99472.00;;;18.21;64.34
21566;BME280;10943;48.738;9.320;2022-07-12T00:58:48;99473.94;;;18.10;65.79
21566;BME280;10943;48.738;9.320;2022-07-12T01:01:17;99477.63;;;18.26;65.27
21566;BME280;10943;48.738;9.320;2022-07-12T01:03:45;99475.06;;;18.14;65.60
21566;BME280;10943;48.738;9.320;2022-07-12T01:06:12;99479.59;;;18.31;64.78
21566;BME280;10943;48.738;9.320;2022-07-12T01:08:40;99472.50;;;18.03;65.66
21566;BME280;10943;48.738;9.320;2022-07-12T01:11:08;99481.19;;;18.01;66.00
21566;BME280;10943;48.738;9.320;2022-07-12T01:13:35;99480.94;;;18.08;64.16
21566;BME280;10943;48.738;9.320;2022-07-12T01:16:06;99480.75;;;17.67;67.08
21566;BME280;10943;48.738;9.320;2022-07-12T01:18:36;99487.97;;;17.52;67.34
21566;BME280;10943;48.738;9.320;2022-07-12T01:21:04;99483.44;;;17.46;68.30
21566;BME280;10943;48.738;9.320;2022-07-12T01:23:34;99483.16;;;17.47;68.76
21566;BME280;10943;48.738;9.320;2022-07-12T01:26:03;99496.19;;;17.74;67.04
21566;BME280;10943;48.738;9.320;2022-07-12T01:28:31;99490.56;;;17.69;67.50
21566;BME280;10943;48.738;9.320;2022-07-12T01:30:58;99493.28;;;18.07;66.31
21566;BME280;10943;48.738;9.320;2022-07-12T01:33:27;99486.81;;;18.01;65.42
21566;BME280;10943;48.738;9.320;2022-07-12T01:35:54;99499.91;;;17.90;66.50
21566;BME280;10943;48.738;9.320;2022-07-12T01:38:21;99491.75;;;17.84;66.54
21566;BME280;10943;48.738;9.320;2022-07-12T01:40:50;99492.56;;;17.74;66.37
21566;BME280;10943;48.738;9.320;2022-07-12T01:43:17;99490.91;;;17.83;66.72
21566;BME280;10943;48.738;9.320;2022-07-12T01:45:44;99487.66;;;18.02;66.10
21566;BME280;10943;48.738;9.320;2022-07-12T01:48:12;99487.34;;;17.98;65.68
21566;BME280;10943;48.738;9.320;2022-07-12T01:50:39;99481.47;;;17.94;66.03
21566;BME280;10943;48.738;9.320;2022-07-12T01:53:07;99489.84;;;17.89;65.34
21566;BME280;10943;48.738;9.320;2022-07-12T01:55:34;99484.56;;;17.45;67.82
21566;BME280;10943;48.738;9.320;2022-07-12T01:58:02;99487.00;;;17.31;67.62
21566;BME280;10943;48.738;9.320;2022-07-12T02:00:31;99494.34;;;17.37;64.92
21566;BME280;10943;48.738;9.320;2022-07-12T02:02:58;99483.16;;;17.47;63.51
21566;BME280;10943;48.738;9.320;2022-07-12T02:05:26;99478.94;;;17.40;64.05
21566;BME280;10943;48.738;9.320;2022-07-12T02:07:54;99492.09;;;17.39;66.88
21566;BME280;10943;48.738;9.320;2022-07-12T02:10:21;99486.78;;;17.43;66.87
21566;BME280;10943;48.738;9.320;2022-07-12T02:12:48;99486.31;;;17.61;66.13
21566;BME280;10943;48.738;9.320;2022-07-12T02:15:16;99485.03;;;17.85;65.57
21566;BME280;10943;48.738;9.320;2022-07-12T02:17:43;99489.72;;;17.69;65.17
21566;BME280;10943;48.738;9.320;2022-07-12T02:20:11;99473.59;;;17.43;63.57
21566;BME280;10943;48.738;9.320;2022-07-12T02:22:39;99475.50;;;17.32;62.76
21566;BME280;10943;48.738;9.320;2022-07-12T02:25:07;99479.91;;;17.18;65.48
21566;BME280;10943;48.738;9.320;2022-07-12T02:27:34;99479.75;;;16.97;68.12
21566;BME280;10943;48.738;9.320;2022-07-12T02:30:02;99481.06;;;17.22;66.66
21566;BME280;10943;48.738;9.320;2022-07-12T02:32:29;99485.34;;;17.35;67.11
21566;BME280;10943;48.738;9.320;2022-07-12T02:34:56;99492.88;;;17.29;67.49
21566;BME280;10943;48.738;9.320;2022-07-12T02:37:24;99480.03;;;17.39;67.10
21566;BME280;10943;48.738;9.320;2022-07-12T02:39:52;99479.09;;;17.23;68.07
21566;BME280;10943;48.738;9.320;2022-07-12T02:42:39;99480.47;;;16.88;68.80
21566;BME280;10943;48.738;9.320;2022-07-12T02:45:07;99482.78;;;16.91;69.25
21566;BME280;10943;48.738;9.320;2022-07-12T02:47:39;99486.38;;;17.24;67.85
21566;BME280;10943;48.738;9.320;2022-07-12T02:50:07;99488.78;;;17.10;68.79
21566;BME280;10943;48.738;9.320;2022-07-12T02:52:35;99482.16;;;16.89;69.29
21566;BME280;10943;48.738;9.320;2022-07-12T02:55:02;99480.81;;;16.91;68.41
21566;BME280;10943;48.738;9.320;2022-07-12T02:57:29;99476.75;;;16.44;69.92
21566;BME280;10943;48.738;9.320;2022-07-12T02:59:57;99478.50;;;16.50;71.21
21566;BME280;10943;48.738;9.320;2022-07-12T03:02:24;99484.94;;;16.83;69.76
21566;BME280;10943;48.738;9.320;2022-07-12T03:04:51;99483.66;;;16.96;68.76
21566;BME280;10943;48.738;9.320;2022-07-12T03:07:18;99488.03;;;16.87;68.85
21566;BME280;10943;48.738;9.320;2022-07-12T03:09:45;99491.22;;;16.63;69.15
21566;BME280;10943;48.738;9.320;2022-07-12T03:12:13;99492.69;;;17.04;67.90
21566;BME280;10943;48.738;9.320;2022-07-12T03:14:40;99493.50;;;16.72;69.05
21566;BME280;10943;48.738;9.320;2022-07-12T03:17:07;99491.00;;;16.43;68.51
21566;BME280;10943;48.738;9.320;2022-07-12T03:19:35;99497.13;;;16.40;68.94
21566;BME280;10943;48.738;9.320;2022-07-12T03:22:02;99503.91;;;16.44;69.76
21566;BME280;10943;48.738;9.320;2022-07-12T03:24:29;99503.34;;;16.47;69.92
21566;BME280;10943;48.738;9.320;2022-07-12T03:26:56;99501.03;;;16.39;70.07
21566;BME280;10943;48.738;9.320;2022-07-12T03:29:24;99503.25;;;16.37;70.51
21566;BME280;10943;48.738;9.320;2022-07-12T03:31:51;99506.00;;;16.31;69.75
21566;BME280;10943;48.738;9.320;2022-07-12T03:34:18;99509.00;;;16.52;69.51
21566;BME280;10943;48.738;9.320;2022-07-12T03:36:46;99515.59;;;16.41;70.11
21566;BME280;10943;48.738;9.320;2022-07-12T03:39:13;99505.94;;;16.86;68.09
21566;BME280;10943;48.738;9.320;2022-07-12T03:41:40;99516.34;;;16.58;68.66
21566;BME280;10943;48.738;9.320;2022-07-12T03:44:07;99523.22;;;16.45;68.67
21566;BME280;10943;48.738;9.320;2022-07-12T03:46:35;99516.25;;;16.48;69.07
21566;BME280;10943;48.738;9.320;2022-07-12T03:49:02;99522.66;;;16.76;67.10
21566;BME280;10943;48.738;9.320;2022-07-12T03:51:29;99532.97;;;16.97;67.56
21566;BME280;10943;48.738;9.320;2022-07-12T03:54:03;99529.97;;;16.77;67.96
21566;BME280;10943;48.738;9.320;2022-07-12T03:56:35;99530.97;;;16.93;67.91
21566;BME280;10943;48.738;9.320;2022-07-12T03:59:21;99536.09;;;16.74;68.13
21566;BME280;10943;48.738;9.320;2022-07-12T04:01:49;99536.28;;;16.67;69.07
21566;BME280;10943;48.738;9.320;2022-07-12T04:04:16;99544.06;;;16.87;68.25
21566;BME280;10943;48.738;9.320;2022-07-12T04:06:43;99550.59;;;17.30;66.46
21566;BME280;10943;48.738;9.320;2022-07-12T04:09:11;99556.13;;;17.20;66.56
21566;BME280;10943;48.738;9.320;2022-07-12T04:11:39;99548.84;;;17.57;65.17
21566;BME280;10943;48.738;9.320;2022-07-12T04:14:06;99549.25;;;17.38;65.47
21566;BME280;10943;48.738;9.320;2022-07-12T04:16:34;99549.59;;;17.47;64.47
21566;BME280;10943;48.738;9.320;2022-07-12T04:19:01;99553.91;;;17.22;65.81
21566;BME280;10943;48.738;9.320;2022-07-12T04:21:29;99557.06;;;17.31;64.81
21566;BME280;10943;48.738;9.320;2022-07-12T04:23:56;99548.81;;;17.52;64.06
21566;BME280;10943;48.738;9.320;2022-07-12T04:26:23;99545.97;;;17.09;66.07
21566;BME280;10943;48.738;9.320;2022-07-12T04:28:50;99547.66;;;17.15;66.04
21566;BME280;10943;48.738;9.320;2022-07-12T04:31:25;99551.63;;;17.14;66.12
21566;BME280;10943;48.738;9.320;2022-07-12T04:33:52;99547.00;;;17.35;64.64
21566;BME280;10943;48.738;9.320;2022-07-12T04:36:20;99551.50;;;17.79;63.53
21566;BME280;10943;48.738;9.320;2022-07-12T04:38:47;99556.34;;;17.94;62.93
21566;BME280;10943;48.738;9.320;2022-07-12T04:41:14;99545.56;;;17.75;64.14
21566;BME280;10943;48.738;9.320;2022-07-12T04:43:49;99550.66;;;18.52;61.53
21566;BME280;10943;48.738;9.320;2022-07-12T04:46:17;99557.47;;;18.82;60.44
21566;BME280;10943;48.738;9.320;2022-07-12T04:48:45;99547.69;;;19.05;59.33
21566;BME280;10943;48.738;9.320;2022-07-12T04:51:15;99555.22;;;19.56;57.87
21566;BME280;10943;48.738;9.320;2022-07-12T04:53:43;99549.34;;;20.39;55.85
21566;BME280;10943;48.738;9.320;2022-07-12T04:56:11;99542.91;;;21.52;53.00
21566;BME280;10943;48.738;9.320;2022-07-12T04:58:38;99559.84;;;22.93;49.13
21566;BME280;10943;48.738;9.320;2022-07-12T05:01:05;99552.69;;;23.80;46.52
21566;BME280;10943;48.738;9.320;2022-07-12T05:03:35;99561.94;;;24.69;44.40
21566;BME280;10943;48.738;9.320;2022-07-12T05:06:02;99561.59;;;26.07;41.96
21566;BME280;10943;48.738;9.320;2022-07-12T05:08:29;99566.34;;;26.78;39.69
21566;BME280;10943;48.738;9.320;2022-07-12T05:10:56;99569.41;;;28.38;37.04
21566;BME280;10943;48.738;9.320;2022-07-12T05:13:23;99578.84;;;29.11;34.53
21566;BME280;10943;48.738;9.320;2022-07-12T05:15:51;99576.94;;;29.57;33.90
21566;BME280;10943;48.738;9.320;2022-07-12T05:18:18;99571.38;;;29.73;33.25
21566;BME280;10943;48.738;9.320;2022-07-12T05:20:45;99583.44;;;30.37;31.98
21566;BME280;10943;48.738;9.320;2022-07-12T05:23:18;99575.31;;;30.27;32.18
21566;BME280;10943;48.738;9.320;2022-07-12T05:25:47;99577.50;;;30.55;31.40
21566;BME280;10943;48.738;9.320;2022-07-12T05:28:17;99578.41;;;29.97;32.63
21566;BME280;10943;48.738;9.320;2022-07-12T05:30:44;99587.59;;;30.89;30.91
21566;BME280;10943;48.738;9.320;2022-07-12T05:33:11;99588.03;;;31.04;30.48
21566;BME280;10943;48.738;9.320;2022-07-12T05:35:39;99590.72;;;30.35;31.40
21566;BME280;10943;48.738;9.320;2022-07-12T05:38:06;99588.34;;;31.27;30.21
21566;BME280;10943;48.738;9.320;2022-07-12T05:40:33;99596.50;;;32.62;28.94
21566;BME280;10943;48.738;9.320;2022-07-12T05:43:01;99593.53;;;33.26;26.95
21566;BME280;10943;48.738;9.320;2022-07-12T05:45:28;99601.03;;;33.30;27.52
21566;BME280;10943;48.738;9.320;2022-07-12T05:47:56;99603.59;;;34.41;25.74
21566;BME280;10943;48.738;9.320;2022-07-12T05:50:23;99606.94;;;34.43;25.69
21566;BME280;10943;48.738;9.320;2022-07-12T05:52:50;99605.38;;;35.60;24.11
21566;BME280;10943;48.738;9.320;2022-07-12T05:55:36;99602.25;;;34.58;25.22
21566;BME280;10943;48.738;9.320;2022-07-12T05:58:04;99609.31;;;35.78;23.86
21566;BME280;10943;48.738;9.320;2022-07-12T06:00:31;99615.72;;;35.95;23.53
21566;BME280;10943;48.738;9.320;2022-07-12T06:02:59;99612.69;;;36.22;23.29
21566;BME280;10943;48.738;9.320;2022-07-12T06:05:27;99613.41;;;36.56;23.00
21566;BME280;10943;48.738;9.320;2022-07-12T06:07:54;99619.88;;;37.54;21.84
21566;BME280;10943;48.738;9.320;2022-07-12T06:10:21;99617.16;;;38.22;20.87
21566;BME280;10943;48.738;9.320;2022-07-12T06:12:49;99621.81;;;38.74;20.74
21566;BME280;10943;48.738;9.320;2022-07-12T06:15:17;99628.72;;;39.45;19.85
21566;BME280;10943;48.738;9.320;2022-07-12T06:17:45;99625.44;;;39.32;19.35
21566;BME280;10943;48.738;9.320;2022-07-12T06:20:14;99620.47;;;39.33;19.52
21566;BME280;10943;48.738;9.320;2022-07-12T06:22:42;99622.19;;;40.15;19.20
21566;BME280;10943;48.738;9.320;2022-07-12T06:25:09;99628.09;;;40.61;18.07
21566;BME280;10943;48.738;9.320;2022-07-12T06:28:06;99623.81;;;38.12;20.16
21566;BME280;10943;48.738;9.320;2022-07-12T06:30:40;99626.97;;;39.73;19.54
21566;BME280;10943;48.738;9.320;2022-07-12T06:33:07;99632.97;;;40.15;18.91
21566;BME280;10943;48.738;9.320;2022-07-12T06:35:34;99628.75;;;40.26;18.18
21566;BME280;10943;48.738;9.320;2022-07-12T06:38:02;99627.22;;;40.64;18.32
21566;BME280;10943;48.738;9.320;2022-07-12T06:40:29;99636.75;;;41.13;17.61
21566;BME280;10943;48.738;9.320;2022-07-12T06:42:57;99632.91;;;42.20;17.03
21566;BME280;10943;48.738;9.320;2022-07-12T06:45:25;99636.31;;;42.15;16.56
21566;BME280;10943;48.738;9.320;2022-07-12T06:47:53;99630.78;;;40.86;17.58
21566;BME280;10943;48.738;9.320;2022-07-12T06:50:20;99629.41;;;40.45;18.12
21566;BME280;10943;48.738;9.320;2022-07-12T06:52:49;99632.63;;;41.11;17.62
21566;BME280;10943;48.738;9.320;2022-07-12T06:55:17;99634.84;;;42.03;16.87
21566;BME280;10943;48.738;9.320;2022-07-12T06:57:44;99635.81;;;43.42;15.64
21566;BME280;10943;48.738;9.320;2022-07-12T07:00:12;99630.25;;;44.08;14.95
21566;BME280;10943;48.738;9.320;2022-07-12T07:02:39;99638.22;;;44.24;14.85
21566;BME280;10943;48.738;9.320;2022-07-12T07:05:08;99636.63;;;43.23;15.33
21566;BME280;10943;48.738;9.320;2022-07-12T07:07:38;99633.91;;;44.98;14.21
21566;BME280;10943;48.738;9.320;2022-07-12T07:10:05;99636.06;;;45.70;13.39
21566;BME280;10943;48.738;9.320;2022-07-12T07:12:33;99641.91;;;45.99;13.06
21566;BME280;10943;48.738;9.320;2022-07-12T07:15:01;99634.88;;;46.09;12.96
21566;BME280;10943;48.738;9.320;2022-07-12T07:17:28;99643.09;;;46.15;13.26
21566;BME280;10943;48.738;9.320;2022-07-12T07:19:55;99637.03;;;46.95;12.34
21566;BME280;10943;48.738;9.320;2022-07-12T07:22:22;99648.06;;;47.39;12.13
21566;BME280;10943;48.738;9.320;2022-07-12T07:24:49;99647.97;;;47.65;12.04
21566;BME280;10943;48.738;9.320;2022-07-12T07:27:17;99653.84;;;47.87;11.49
21566;BME280;10943;48.738;9.320;2022-07-12T07:29:44;99640.88;;;48.38;11.39
21566;BME280;10943;48.738;9.320;2022-07-12T07:32:30;99650.56;;;48.48;11.28
21566;BME280;10943;48.738;9.320;2022-07-12T07:34:57;99642.88;;;48.51;11.24
21566;BME280;10943;48.738;9.320;2022-07-12T07:37:24;99652.69;;;47.27;11.67
21566;BME280;10943;48.738;9.320;2022-07-12T07:39:52;99652.22;;;45.61;13.17
21566;BME280;10943;48.738;9.320;2022-07-12T07:42:19;99659.44;;;46.67;12.41
21566;BME280;10943;48.738;9.320;2022-07-12T07:44:46;99653.41;;;46.84;12.25
21566;BME280;10943;48.738;9.320;2022-07-12T07:47:48;99643.47;;;46.29;12.31
21566;BME280;10943;48.738;9.320;2022-07-12T07:50:36;99642.97;;;45.34;13.38
21566;BME280;10943;48.738;9.320;2022-07-12T07:53:05;99649.34;;;47.03;12.27
21566;BME280;10943;48.738;9.320;2022-07-12T07:55:32;99647.13;;;48.50;11.30
21566;BME280;10943;48.738;9.320;2022-07-12T07:58:00;99648.41;;;48.39;11.00
21566;BME280;10943;48.738;9.320;2022-07-12T08:00:28;99650.59;;;49.45;10.16
21566;BME280;10943;48.738;9.320;2022-07-12T08:02:56;99645.63;;;49.97;9.88
21566;BME280;10943;48.738;9.320;2022-07-12T08:05:25;99652.84;;;49.87;10.20
21566;BME280;10943;48.738;9.320;2022-07-12T08:07:57;99652.47;;;48.33;10.29
21566;BME280;10943;48.738;9.320;2022-07-12T08:10:26;99638.97;;;45.27;12.25
21566;BME280;10943;48.738;9.320;2022-07-12T08:12:53;99637.00;;;44.42;12.86
21566;BME280;10943;48.738;9.320;2022-07-12T08:15:21;99644.22;;;44.54;12.98
21566;BME280;10943;48.738;9.320;2022-07-12T08:17:48;99628.13;;;44.62;12.73
21566;BME280;10943;48.738;9.320;2022-07-12T08:20:22;99632.50;;;45.20;12.00
21566;BME280;10943;48.738;9.320;2022-07-12T08:23:10;99636.00;;;47.02;11.25
21566;BME280;10943;48.738;9.320;2022-07-12T08:25:38;99641.69;;;46.32;11.45
21566;BME280;10943;48.738;9.320;2022-07-12T08:28:05;99630.97;;;44.82;12.37
21566;BME280;10943;48.738;9.320;2022-07-12T08:30:33;99638.19;;;45.40;11.75
21566;BME280;10943;48.738;9.320;2022-07-12T08:33:06;99636.34;;;45.00;12.23
21566;BME280;10943;48.738;9.320;2022-07-12T08:35:33;99627.16;;;46.16;11.05
21566;BME280;10943;48.738;9.320;2022-07-12T08:38:01;99626.50;;;46.85;10.33
21566;BME280;10943;48.738;9.320;2022-07-12T08:40:28;99634.53;;;46.33;10.87
21566;BME280;10943;48.738;9.320;2022-07-12T08:42:59;99626.59;;;45.36;11.48
21566;BME280;10943;48.738;9.320;2022-07-12T08:45:29;99627.19;;;45.73;11.05
21566;BME280;10943;48.738;9.320;2022-07-12T08:47:56;99626.19;;;45.93;10.85
21566;BME280;10943;48.738;9.320;2022-07-12T08:50:24;99635.16;;;47.02;10.37
21566;BME280;10943;48.738;9.320;2022-07-12T08:52:55;99636.06;;;45.70;11.29
21566;BME280;10943;48.738;9.320;2022-07-12T08:55:32;99648.88;;;45.46;11.57
21566;BME280;10943;48.738;9.320;2022-07-12T08:58:15;99642.84;;;46.48;10.84
21566;BME280;10943;48.738;9.320;2022-07-12T09:00:43;99644.88;;;47.69;10.32
21566;BME280;10943;48.738;9.320;2022-07-12T09:03:16;99650.59;;;47.85;10.44
21566;BME280;10943;48.738;9.320;2022-07-12T09:08:30;99661.06;;;47.51;10.66
21566;BME280;10943;48.738;9.320;2022-07-12T09:11:03;99647.78;;;46.76;11.26
21566;BME280;10943;48.738;9.320;2022-07-12T09:13:55;99642.06;;;46.47;11.63
21566;BME280;10943;48.738;9.320;2022-07-12T09:16:26;99659.69;;;48.09;10.26
21566;BME280;10943;48.738;9.320;2022-07-12T09:19:12;99641.53;;;46.87;11.03
21566;BME280;10943;48.738;9.320;2022-07-12T09:22:02;99637.66;;;44.49;12.48
21566;BME280;10943;48.738;9.320;2022-07-12T09:28:31;99643.06;;;49.62;9.24
21566;BME280;10943;48.738;9.320;2022-07-12T09:42:27;99646.28;;;49.92;8.97
21566;BME280;10943;48.738;9.320;2022-07-12T09:48:47;99635.84;;;48.48;9.65
21566;BME280;10943;48.738;9.320;2022-07-12T10:25:30;99644.63;;;47.19;10.48
21566;BME280;10943;48.738;9.320;2022-07-12T10:28:02;99641.78;;;48.57;9.67
21566;BME280;10943;48.738;9.320;2022-07-12T10:30:30;99636.63;;;48.89;9.21
21566;BME280;10943;48.738;9.320;2022-07-12T10:33:21;99642.84;;;50.46;8.20
21566;BME280;10943;48.738;9.320;2022-07-12T10:36:07;99627.72;;;50.19;8.67
21566;BME280;10943;48.738;9.320;2022-07-12T10:46:35;99617.19;;;46.26;11.11
21566;BME280;10943;48.738;9.320;2022-07-12T10:56:20;99604.56;;;44.86;11.86
21566;BME280;10943;48.738;9.320;2022-07-12T11:02:39;99599.75;;;43.52;12.61
21566;BME280;10943;48.738;9.320;2022-07-12T11:12:34;99582.34;;;44.39;12.35
21566;BME280;10943;48.738;9.320;2022-07-12T11:26:11;99593.41;;;42.70;13.51
21566;BME280;10943;48.738;9.320;2022-07-12T11:36:07;99585.63;;;43.88;12.66
21566;BME280;10943;48.738;9.320;2022-07-12T11:38:40;99587.16;;;45.11;11.76
21566;BME280;10943;48.738;9.320;2022-07-12T11:41:13;99573.09;;;46.42;10.88
21566;BME280;10943;48.738;9.320;2022-07-12T11:43:42;99578.16;;;45.19;11.79
21566;BME280;10943;48.738;9.320;2022-07-12T11:46:10;99587.13;;;43.96;12.51
21566;BME280;10943;48.738;9.320;2022-07-12T11:48:42;99571.19;;;41.74;14.42
21566;BME280;10943;48.738;9.320;2022-07-12T11:51:15;99572.41;;;40.66;15.07
21566;BME280;10943;48.738;9.320;2022-07-12T11:53:43;99572.50;;;40.51;15.30
21566;BME280;10943;48.738;9.320;2022-07-12T11:56:10;99563.97;;;41.17;14.82
21566;BME280;10943;48.738;9.320;2022-07-12T11:58:38;99579.22;;;42.21;13.99
21566;BME280;10943;48.738;9.320;2022-07-12T12:01:10;99575.34;;;43.63;12.90
21566;BME280;10943;48.738;9.320;2022-07-12T12:03:44;99580.13;;;44.10;12.47
21566;BME280;10943;48.738;9.320;2022-07-12T12:06:14;99580.06;;;43.57;13.02
21566;BME280;10943;48.738;9.320;2022-07-12T12:08:42;99590.09;;;42.92;13.24
21566;BME280;10943;48.738;9.320;2022-07-12T12:11:11;99587.38;;;43.45;13.02
21566;BME280;10943;48.738;9.320;2022-07-12T12:13:39;99569.00;;;44.21;12.20
21566;BME280;10943;48.738;9.320;2022-07-12T12:16:10;99571.38;;;43.33;12.60
21566;BME280;10943;48.738;9.320;2022-07-12T12:18:40;99575.78;;;42.53;13.31
21566;BME280;10943;48.738;9.320;2022-07-12T12:21:11;99562.09;;;43.38;12.97
21566;BME280;10943;48.738;9.320;2022-07-12T12:23:42;99559.03;;;43.05;12.69
21566;BME280;10943;48.738;9.320;2022-07-12T12:26:14;99552.00;;;43.63;12.22
21566;BME280;10943;48.738;9.320;2022-07-12T12:28:53;99555.31;;;43.65;12.32
21566;BME280;10943;48.738;9.320;2022-07-12T12:31:23;99553.03;;;44.59;11.87
21566;BME280;10943;48.738;9.320;2022-07-12T12:33:53;99539.66;;;45.20;11.38
21566;BME280;10943;48.738;9.320;2022-07-12T12:36:36;99539.78;;;45.29;11.35
21566;BME280;10943;48.738;9.320;2022-07-12T12:39:04;99536.00;;;42.67;13.02
21566;BME280;10943;48.738;9.320;2022-07-12T12:41:41;99537.66;;;42.44;12.77
21566;BME280;10943;48.738;9.320;2022-07-12T12:44:11;99533.75;;;44.12;12.03
21566;BME280;10943;48.738;9.320;2022-07-12T12:46:50;99530.34;;;44.63;11.59
21566;BME280;10943;48.738;9.320;2022-07-12T12:49:51;99532.19;;;44.73;11.64
21566;BME280;10943;48.738;9.320;2022-07-12T12:52:24;99530.53;;;43.90;12.09
21566;BME280;10943;48.738;9.320;2022-07-12T12:54:54;99537.66;;;41.89;13.58
21566;BME280;10943;48.738;9.320;2022-07-12T12:57:24;99540.97;;;41.30;13.82
21566;BME280;10943;48.738;9.320;2022-07-12T12:59:53;99530.47;;;41.05;14.21
21566;BME280;10943;48.738;9.320;2022-07-12T13:02:20;99532.50;;;41.73;13.75
21566;BME280;10943;48.738;9.320;2022-07-12T13:05:16;99534.69;;;41.00;14.30
21566;BME280;10943;48.738;9.320;2022-07-12T13:07:44;99535.13;;;40.01;14.95
21566;BME280;10943;48.738;9.320;2022-07-12T13:10:11;99533.19;;;38.87;16.35
21566;BME280;10943;48.738;9.320;2022-07-12T13:12:39;99541.78;;;37.50;17.59
21566;BME280;10943;48.738;9.320;2022-07-12T13:15:07;99531.97;;;38.67;16.37
21566;BME280;10943;48.738;9.320;2022-07-12T13:17:34;99534.34;;;39.19;16.10
21566;BME280;10943;48.738;9.320;2022-07-12T13:20:04;99531.00;;;37.40;17.18
21566;BME280;10943;48.738;9.320;2022-07-12T13:22:34;99528.19;;;35.46;18.91
21566;BME280;10943;48.738;9.320;2022-07-12T13:25:02;99522.53;;;35.53;19.31
21566;BME280;10943;48.738;9.320;2022-07-12T13:27:29;99522.94;;;36.38;18.46
21566;BME280;10943;48.738;9.320;2022-07-12T13:29:57;99522.94;;;37.04;17.93
21566;BME280;10943;48.738;9.320;2022-07-12T13:32:24;99529.19;;;35.98;19.47
21566;BME280;10943;48.738;9.320;2022-07-12T13:34:52;99517.78;;;34.77;20.52
21566;BME280;10943;48.738;9.320;2022-07-12T13:37:20;99517.13;;;34.60;20.97
21566;BME280;10943;48.738;9.320;2022-07-12T13:39:47;99524.13;;;34.59;21.25
21566;BME280;10943;48.738;9.320;2022-07-12T13:42:33;99520.94;;;35.25;19.83
21566;BME280;10943;48.738;9.320;2022-07-12T13:45:00;99523.75;;;34.88;20.62
21566;BME280;10943;48.738;9.320;2022-07-12T13:47:27;99517.81;;;35.38;19.74
21566;BME280;10943;48.738;9.320;2022-07-12T13:49:55;99522.91;;;35.51;19.33
21566;BME280;10943;48.738;9.320;2022-07-12T13:52:24;99524.56;;;34.88;20.04
21566;BME280;10943;48.738;9.320;2022-07-12T13:54:52;99521.53;;;34.27;21.00
21566;BME280;10943;48.738;9.320;2022-07-12T13:57:19;99521.88;;;33.56;21.63
21566;BME280;10943;48.738;9.320;2022-07-12T13:59:47;99518.31;;;33.63;21.55
21566;BME280;10943;48.738;9.320;2022-07-12T14:02:14;99525.25;;;33.38;21.71
21566;BME280;10943;48.738;9.320;2022-07-12T14:04:41;99524.81;;;31.82;23.65
21566;BME280;10943;48.738;9.320;2022-07-12T14:07:10;99534.75;;;32.32;23.15
21566;BME280;10943;48.738;9.320;2022-07-12T14:09:38;99528.72;;;31.89;23.65
21566;BME280;10943;48.738;9.320;2022-07-12T14:12:06;99527.03;;;32.04;23.20
21566;BME280;10943;48.738;9.320;2022-07-12T14:14:36;99523.91;;;32.77;22.65
21566;BME280;10943;48.738;9.320;2022-07-12T14:17:22;99518.34;;;32.33;23.50
21566;BME280;10943;48.738;9.320;2022-07-12T14:19:50;99522.59;;;31.91;24.17
21566;BME280;10943;48.738;9.320;2022-07-12T14:22:17;99511.88;;;31.43;24.55
21566;BME280;10943;48.738;9.320;2022-07-12T14:24:45;99519.56;;;32.00;23.75
21566;BME280;10943;48.738;9.320;2022-07-12T14:27:12;99510.31;;;32.74;23.20
21566;BME280;10943;48.738;9.320;2022-07-12T14:29:39;99501.41;;;32.28;23.51
21566;BME280;10943;48.738;9.320;2022-07-12T14:32:07;99503.19;;;31.68;24.42
21566;BME280;10943;48.738;9.320;2022-07-12T14:34:34;99505.38;;;31.02;25.27
21566;BME280;10943;48.738;9.320;2022-07-12T14:37:07;99507.38;;;31.58;24.48
21566;BME280;10943;48.738;9.320;2022-07-12T14:39:35;99509.72;;;32.17;23.71
21566;BME280;10943;48.738;9.320;2022-07-12T14:42:03;99503.59;;;32.50;23.15
21566;BME280;10943;48.738;9.320;2022-07-12T14:44:30;99505.94;;;32.64;22.83
21566;BME280;10943;48.738;9.320;2022-07-12T14:46:58;99493.66;;;32.64;22.82
21566;BME280;10943;48.738;9.320;2022-07-12T14:49:26;99502.88;;;32.89;22.82
21566;BME280;10943;48.738;9.320;2022-07-12T14:51:56;99506.19;;;33.11;22.45
21566;BME280;10943;48.738;9.320;2022-07-12T14:54:24;99501.13;;;33.04;22.72